Time;durP1;ratioP1;P1;durP2;ratioP2;P2;SDS_P1;SDS_P2;PMS_P1;PMS_P2;Temp;Humidity;BMP_temperature;BMP_pressure;BME280_temperature;BME280_humidity;BME280_pressure;Samples;Min_cycle;Max_cycle;Signal;HPM_P1;HPM_P2
2021/12/14 06:10:07;;;;;;;67.32;31.02;;;;;;;;;;5006900;23;20055;-65
2021/12/14 06:12:34;;;;;;;56.38;28.58;;;;;;;;;;4914699;29;20068;-65
2021/12/14 06:15:01;;;;;;;59.85;29.63;;;;;;;;;;4914602;29;20110;-64
2021/12/14 06:17:32;;;;;;;65.60;33.72;;;;;;;;;;4914747;29;20036;-64
2021/12/14 06:20:00;;;;;;;58.33;27.55;;;;;;;;;;4914861;29;20028;-65
2021/12/14 06:22:27;;;;;;;58.47;27.95;;;;;;;;;;4914389;29;20060;-67
2021/12/14 06:24:55;;;;;;;56.15;26.80;;;;;;;;;;4914572;29;20039;-63
2021/12/14 06:27:22;;;;;;;61.80;29.42;;;;;;;;;;4914457;29;20028;-68
2021/12/14 06:29:53;;;;;;;59.97;28.13;;;;;;;;;;4914471;29;20127;-65
2021/12/14 06:32:24;;;;;;;57.53;26.52;;;;;;;;;;4914091;29;20028;-69
2021/12/14 06:34:52;;;;;;;57.25;28.20;;;;;;;;;;4914707;29;20122;-66
2021/12/14 06:37:54;;;;;;;59.75;28.70;;;;;;;;;;4914666;29;20024;-64
2021/12/14 06:40:17;;;;;;;54.13;27.00;;;;;;;;;;4918192;29;20056;-68
2021/12/14 06:42:44;;;;;;;51.70;26.52;;;;;;;;;;4916843;29;20111;-69
2021/12/14 06:45:16;;;;;;;54.35;26.08;;;;;;;;;;4918104;29;20024;-63
2021/12/14 06:47:43;;;;;;;51.40;25.30;;;;;;;;;;4916546;29;20036;-68
2021/12/14 06:50:11;;;;;;;54.65;26.48;;;;;;;;;;4917934;29;20107;-66
2021/12/14 06:52:38;;;;;;;56.60;26.90;;;;;;;;;;4917678;29;20020;-67
2021/12/14 06:55:05;;;;;;;61.70;28.83;;;;;;;;;;4916692;29;20047;-62
2021/12/14 06:57:31;;;;;;;70.20;33.10;;;;;;;;;;4918132;29;20107;-66
2021/12/14 06:59:58;;;;;;;60.28;28.50;;;;;;;;;;4917769;29;20552;-68
2021/12/14 07:02:25;;;;;;;62.35;28.33;;;;;;;;;;4917748;29;20030;-68
2021/12/14 07:04:51;;;;;;;66.22;29.90;;;;;;;;;;4917769;29;20424;-64
2021/12/14 07:07:22;;;;;;;74.90;34.42;;;;;;;;;;4917531;29;20048;-61
2021/12/14 07:09:53;;;;;;;50.38;22.73;;;;;;;;;;4900850;29;20081;-61
2021/12/14 07:12:25;;;;;;;65.57;29.45;;;;;;;;;;4897579;29;20028;-62
2021/12/14 07:14:53;;;;;;;66.38;28.25;;;;;;;;;;4895477;29;20032;-63
2021/12/14 07:17:19;;;;;;;72.50;31.98;;;;;;;;;;4897391;29;20031;-63
2021/12/14 07:19:58;;;;;;;78.93;35.55;;;;;;;;;;4897407;29;20036;-70
2021/12/14 07:22:32;;;;;;;67.15;31.30;;;;;;;;;;4898280;29;20063;-69
2021/12/14 07:25:01;;;;;;;71.93;30.80;;;;;;;;;;4898520;29;20028;-66
2021/12/14 07:27:28;;;;;;;82.72;35.92;;;;;;;;;;4897650;29;20021;-68
2021/12/14 07:30:08;;;;;;;72.75;32.78;;;;;;;;;;4879547;29;20084;-68
2021/12/14 07:32:57;;;;;;;58.25;26.60;;;;;;;;;;4879451;29;20037;-68
2021/12/14 07:35:27;;;;;;;48.03;22.50;;;;;;;;;;4874348;29;20059;-68
2021/12/14 07:37:54;;;;;;;44.97;21.33;;;;;;;;;;4879292;29;20041;-68
2021/12/14 07:40:22;;;;;;;50.95;22.60;;;;;;;;;;4888007;29;20073;-68
2021/12/14 07:42:48;;;;;;;43.97;21.65;;;;;;;;;;4896109;29;20024;-65
2021/12/14 07:45:23;;;;;;;54.38;22.98;;;;;;;;;;4897713;29;20426;-68
2021/12/14 07:47:51;;;;;;;49.17;23.25;;;;;;;;;;4897697;29;20421;-63
2021/12/14 07:50:17;;;;;;;50.22;25.30;;;;;;;;;;4897812;29;20041;-68
2021/12/14 07:52:43;;;;;;;50.63;23.38;;;;;;;;;;4896430;29;20127;-68
2021/12/14 07:55:19;;;;;;;51.67;24.10;;;;;;;;;;4927990;29;20044;-69
2021/12/14 07:57:47;;;;;;;56.20;26.92;;;;;;;;;;4895872;29;20036;-66
2021/12/14 08:00:21;;;;;;;51.92;25.05;;;;;;;;;;4896488;29;20072;-67
2021/12/14 08:02:56;;;;;;;56.78;27.65;;;;;;;;;;4897539;29;20036;-66
2021/12/14 08:05:23;;;;;;;73.38;31.92;;;;;;;;;;4897594;29;20048;-63
2021/12/14 08:08:14;;;;;;;57.03;26.63;;;;;;;;;;4896565;29;20060;-65
2021/12/14 08:10:45;;;;;;;60.65;27.52;;;;;;;;;;4897402;29;20122;-72
2021/12/14 08:13:16;;;;;;;57.55;26.83;;;;;;;;;;4896776;29;20081;-67
2021/12/14 08:15:52;;;;;;;52.95;24.45;;;;;;;;;;4896151;29;20080;-71
2021/12/14 08:18:26;;;;;;;51.83;24.25;;;;;;;;;;4896096;29;20072;-71
2021/12/14 08:21:04;;;;;;;52.85;24.90;;;;;;;;;;4894660;29;20031;-71
2021/12/14 08:23:33;;;;;;;47.22;22.00;;;;;;;;;;4893647;29;20523;-69
2021/12/14 08:26:10;;;;;;;50.50;23.48;;;;;;;;;;4895228;29;20148;-64
2021/12/14 08:28:47;;;;;;;51.00;23.38;;;;;;;;;;4893830;29;20040;-70
2021/12/14 08:31:13;;;;;;;45.28;22.70;;;;;;;;;;4895662;29;20096;-70
2021/12/14 08:33:39;;;;;;;48.88;23.77;;;;;;;;;;4895418;29;20039;-70
2021/12/14 08:36:08;;;;;;;53.17;23.60;;;;;;;;;;4895881;29;20024;-73
2021/12/14 08:38:36;;;;;;;50.83;23.70;;;;;;;;;;4895301;29;20124;-66
2021/12/14 08:41:12;;;;;;;55.53;26.13;;;;;;;;;;4895879;29;20024;-72
2021/12/14 08:43:46;;;;;;;48.95;24.00;;;;;;;;;;4896725;29;20032;-73
2021/12/14 08:46:13;;;;;;;47.60;23.73;;;;;;;;;;4896742;29;20048;-69
2021/12/14 08:48:47;;;;;;;47.90;24.00;;;;;;;;;;4896267;29;20079;-70
2021/12/14 08:51:20;;;;;;;50.33;24.08;;;;;;;;;;4896792;29;20064;-63
2021/12/14 08:53:50;;;;;;;60.80;29.67;;;;;;;;;;4896799;29;20068;-70
2021/12/14 08:56:17;;;;;;;69.22;31.98;;;;;;;;;;4896608;29;20057;-70
2021/12/14 08:58:43;;;;;;;57.90;28.58;;;;;;;;;;4896300;29;20409;-72
2021/12/14 09:01:14;;;;;;;51.13;25.95;;;;;;;;;;4895966;29;20196;-68
2021/12/14 09:03:46;;;;;;;60.67;28.98;;;;;;;;;;4896596;29;20054;-69
2021/12/14 09:06:14;;;;;;;63.20;30.38;;;;;;;;;;4896806;29;20104;-70
2021/12/14 09:08:41;;;;;;;59.88;30.20;;;;;;;;;;4896028;29;20053;-70
2021/12/14 09:11:09;;;;;;;55.80;29.45;;;;;;;;;;4896127;29;20032;-70
2021/12/14 09:13:36;;;;;;;60.58;30.88;;;;;;;;;;4896474;29;20028;-73
2021/12/14 09:16:04;;;;;;;64.57;32.38;;;;;;;;;;4896610;29;20042;-72
2021/12/14 09:18:32;;;;;;;64.65;31.00;;;;;;;;;;4896089;29;20059;-72
2021/12/14 09:21:01;;;;;;;66.45;31.63;;;;;;;;;;4895823;29;20493;-69
2021/12/14 09:23:30;;;;;;;60.10;30.15;;;;;;;;;;4896316;29;20031;-70
2021/12/14 09:25:56;;;;;;;66.85;32.60;;;;;;;;;;4896273;29;20028;-69
2021/12/14 09:28:23;;;;;;;68.47;32.60;;;;;;;;;;4896063;29;20028;-71
2021/12/14 09:30:51;;;;;;;64.82;31.38;;;;;;;;;;4896047;29;20541;-70
2021/12/14 09:33:18;;;;;;;69.07;32.80;;;;;;;;;;4895270;29;20088;-71
2021/12/14 09:35:45;;;;;;;66.32;32.75;;;;;;;;;;4896309;29;20084;-72
2021/12/14 09:38:12;;;;;;;62.92;32.03;;;;;;;;;;4895686;29;20037;-74
2021/12/14 09:40:45;;;;;;;61.30;31.55;;;;;;;;;;4895950;29;20039;-71
2021/12/14 09:43:11;;;;;;;;;;;;;;;;;;4895901;29;20032;-67
2021/12/14 09:45:42;;;;;;;67.47;32.15;;;;;;;;;;4895734;29;19935;-64
2021/12/14 09:48:11;;;;;;;61.08;29.98;;;;;;;;;;4896088;29;20028;-71
2021/12/14 09:50:38;;;;;;;60.58;31.08;;;;;;;;;;4896006;29;20040;-70
2021/12/14 09:53:06;;;;;;;56.05;30.05;;;;;;;;;;4896008;29;20076;-71
2021/12/14 09:55:33;;;;;;;59.67;29.75;;;;;;;;;;4895348;29;20033;-62
2021/12/14 09:58:01;;;;;;;57.58;30.38;;;;;;;;;;4895975;29;20161;-63
2021/12/14 10:00:32;;;;;;;54.28;29.95;;;;;;;;;;4895904;29;20029;-68
2021/12/14 10:03:00;;;;;;;58.13;30.95;;;;;;;;;;4895752;29;20102;-66
2021/12/14 10:05:36;;;;;;;58.83;30.52;;;;;;;;;;4895769;29;20080;-65
2021/12/14 10:08:03;;;;;;;62.00;31.65;;;;;;;;;;4895541;29;20115;-63
2021/12/14 10:10:36;;;;;;;61.00;31.38;;;;;;;;;;4895519;29;20051;-64
2021/12/14 10:13:02;;;;;;;58.33;31.00;;;;;;;;;;4897951;29;20064;-64
2021/12/14 10:15:49;;;;;;;56.90;31.42;;;;;;;;;;4899451;29;20048;-65
2021/12/14 10:18:17;;;;;;;58.72;32.10;;;;;;;;;;4899240;29;20124;-63
2021/12/14 10:20:46;;;;;;;59.10;31.98;;;;;;;;;;4899343;29;20025;-63
2021/12/14 10:23:13;;;;;;;59.42;32.08;;;;;;;;;;4899257;29;20096;-63
2021/12/14 10:25:40;;;;;;;64.50;32.85;;;;;;;;;;4899443;29;20025;-63
2021/12/14 10:28:06;;;;;;;60.97;33.05;;;;;;;;;;4898990;29;20033;-63
2021/12/14 10:30:37;;;;;;;61.95;32.75;;;;;;;;;;4899109;29;20080;-62
2021/12/14 10:33:04;;;;;;;62.85;33.80;;;;;;;;;;4898880;29;20116;-63
2021/12/14 10:35:36;;;;;;;55.90;31.52;;;;;;;;;;4898811;29;20088;-62
2021/12/14 10:38:28;;;;;;;55.63;32.08;;;;;;;;;;4899153;29;20048;-62
2021/12/14 10:43:43;;;;;;;61.30;33.10;;;;;;;;;;4899339;29;20177;-65
2021/12/14 10:46:12;;;;;;;59.60;31.88;;;;;;;;;;4898279;29;20501;-64
2021/12/14 10:48:41;;;;;;;67.00;34.63;;;;;;;;;;4898648;29;20400;-65
2021/12/14 10:51:08;;;;;;;60.13;32.95;;;;;;;;;;4898659;29;20060;-59
2021/12/14 10:53:35;;;;;;;60.25;32.90;;;;;;;;;;4898927;29;20088;-66
2021/12/14 10:56:04;;;;;;;61.83;32.55;;;;;;;;;;4898595;29;20036;-60
2021/12/14 10:58:30;;;;;;;61.53;33.97;;;;;;;;;;4898929;29;20067;-59
2021/12/14 11:00:59;;;;;;;60.03;32.83;;;;;;;;;;4898588;29;20029;-66
2021/12/14 11:03:28;;;;;;;60.55;32.25;;;;;;;;;;4898288;29;20477;-63
2021/12/14 11:05:57;;;;;;;56.80;30.90;;;;;;;;;;4898647;29;20036;-61
2021/12/14 11:11:07;;;;;;;60.15;31.98;;;;;;;;;;4898251;29;20025;-65
2021/12/14 11:13:43;;;;;;;57.75;31.60;;;;;;;;;;4898600;29;20040;-61
2021/12/14 11:16:19;;;;;;;59.05;32.47;;;;;;;;;;4898194;29;20029;-62
2021/12/14 11:18:46;;;;;;;61.22;33.13;;;;;;;;;;4897861;29;20463;-59
2021/12/14 11:21:14;;;;;;;63.42;32.63;;;;;;;;;;4898297;29;20107;-61
2021/12/14 11:23:45;;;;;;;60.40;32.10;;;;;;;;;;4897579;29;20108;-68
2021/12/14 11:26:11;;;;;;;61.90;31.17;;;;;;;;;;4897678;29;20056;-61
2021/12/14 11:28:57;;;;;;;58.90;31.80;;;;;;;;;;4898074;29;20047;-61
2021/12/14 11:31:25;;;;;;;64.03;33.90;;;;;;;;;;4898194;29;20544;-61
2021/12/14 11:33:53;;;;;;;66.90;34.40;;;;;;;;;;4897872;29;20061;-61
2021/12/14 11:36:25;;;;;;;59.88;32.88;;;;;;;;;;4898337;29;20029;-60
2021/12/14 11:38:53;;;;;;;63.92;34.28;;;;;;;;;;4897744;29;20067;-75
2021/12/14 11:41:28;;;;;;;62.17;33.75;;;;;;;;;;4928018;29;20035;-64
2021/12/14 11:44:00;;;;;;;65.20;35.13;;;;;;;;;;4897857;29;20064;-65
2021/12/14 11:46:29;;;;;;;66.97;34.53;;;;;;;;;;4897636;29;20469;-65
2021/12/14 11:48:57;;;;;;;66.43;34.00;;;;;;;;;;4926600;29;20116;-65
2021/12/14 11:51:25;;;;;;;64.72;34.38;;;;;;;;;;4897662;29;20461;-63
2021/12/14 11:53:52;;;;;;;61.08;33.38;;;;;;;;;;4897774;29;20035;-68
2021/12/14 11:56:19;;;;;;;62.55;34.33;;;;;;;;;;4897309;29;20107;-68
2021/12/14 11:58:50;;;;;;;55.40;31.30;;;;;;;;;;4896531;29;20044;-67
2021/12/14 12:01:22;;;;;;;60.47;31.00;;;;;;;;;;4896981;29;20092;-66
2021/12/14 12:03:49;;;;;;;57.47;31.60;;;;;;;;;;4896505;29;20037;-66
2021/12/14 12:09:31;;;;;;;62.53;34.08;;;;;;;;;;4896961;29;20475;-65
2021/12/14 12:11:57;;;;;;;63.00;32.88;;;;;;;;;;4896957;29;20032;-65
2021/12/14 12:14:26;;;;;;;65.38;35.83;;;;;;;;;;4894863;29;20043;-66
2021/12/14 12:16:54;;;;;;;73.88;38.15;;;;;;;;;;4897421;29;20032;-64
2021/12/14 12:19:23;;;;;;;71.82;39.15;;;;;;;;;;4897126;29;20510;-63
2021/12/14 12:21:50;;;;;;;72.85;38.13;;;;;;;;;;4895982;29;20051;-62
2021/12/14 12:24:36;;;;;;;75.75;38.80;;;;;;;;;;4896396;29;20119;-61
2021/12/14 12:27:23;;;;;;;70.97;38.75;;;;;;;;;;4892607;29;20516;-68
2021/12/14 12:30:08;;;;;;;66.75;36.00;;;;;;;;;;4897487;29;20040;-62
2021/12/14 12:32:34;;;;;;;75.65;38.70;;;;;;;;;;4897056;29;20028;-62
2021/12/14 12:35:00;;;;;;;73.63;39.97;;;;;;;;;;4896444;29;20099;-68
2021/12/14 12:37:40;;;;;;;72.82;39.40;;;;;;;;;;4896472;29;20024;-64
2021/12/14 12:40:08;;;;;;;76.13;39.40;;;;;;;;;;4896816;29;20481;-68
2021/12/14 12:42:35;;;;;;;78.65;40.78;;;;;;;;;;4896530;29;20080;-69
2021/12/14 12:45:01;;;;;;;84.15;43.55;;;;;;;;;;4895983;29;20043;-67
2021/12/14 12:47:27;;;;;;;84.82;42.20;;;;;;;;;;4892939;29;20069;-66
2021/12/14 12:49:57;;;;;;;82.15;41.78;;;;;;;;;;4895236;29;20052;-65
2021/12/14 12:52:30;;;;;;;98.70;53.38;;;;;;;;;;4896088;29;20389;-68
2021/12/14 12:54:57;;;;;;;;;;;;;;;;;;4893097;29;20350;-63
2021/12/14 12:57:35;;;;;;;82.40;43.08;;;;;;;;;;4896805;29;19908;-68
2021/12/14 13:00:13;;;;;;;82.25;41.22;;;;;;;;;;4895254;29;20029;-65
2021/12/14 13:02:48;;;;;;;88.47;45.05;;;;;;;;;;4893125;29;20039;-62
2021/12/14 13:05:21;;;;;;;88.57;43.90;;;;;;;;;;4895253;29;20073;-64
2021/12/14 13:07:56;;;;;;;76.50;39.95;;;;;;;;;;4893745;29;20043;-58
2021/12/14 13:10:31;;;;;;;72.18;38.38;;;;;;;;;;4895156;29;20408;-68
2021/12/14 13:13:03;;;;;;;72.72;39.35;;;;;;;;;;4894507;29;20025;-62
2021/12/14 13:15:29;;;;;;;61.10;31.90;;;;;;;;;;4877491;29;20036;-64
2021/12/14 13:18:13;;;;;;;74.53;39.88;;;;;;;;;;4913627;29;20032;-64
2021/12/14 13:20:39;;;;;;;98.55;51.42;;;;;;;;;;4915370;29;20143;-65
2021/12/14 13:23:05;;;;;;;100.43;52.35;;;;;;;;;;4914487;29;20123;-70
2021/12/14 13:25:36;;;;;;;95.60;49.58;;;;;;;;;;4914857;29;20483;-67
2021/12/14 13:28:02;;;;;;;168.63;77.57;;;;;;;;;;4914962;29;20032;-66
2021/12/14 13:30:29;;;;;;;147.48;71.13;;;;;;;;;;4914293;29;20504;-67
2021/12/14 13:32:55;;;;;;;76.68;42.17;;;;;;;;;;4897518;29;20025;-66
2021/12/14 13:35:23;;;;;;;68.95;36.95;;;;;;;;;;4895770;29;20440;-69
2021/12/14 13:37:57;;;;;;;67.10;36.53;;;;;;;;;;4895320;29;20037;-70
2021/12/14 13:40:26;;;;;;;75.90;38.10;;;;;;;;;;4894259;29;20049;-65
2021/12/14 13:43:21;;;;;;;71.97;37.17;;;;;;;;;;4894732;29;20021;-66
2021/12/14 13:45:48;;;;;;;69.03;37.13;;;;;;;;;;4894030;29;20032;-66
2021/12/14 13:48:18;;;;;;;67.47;36.83;;;;;;;;;;4893932;29;20024;-64
2021/12/14 13:50:46;;;;;;;69.63;37.10;;;;;;;;;;4889873;29;20041;-67
2021/12/14 13:53:12;;;;;;;76.95;39.97;;;;;;;;;;4894537;29;20549;-65
2021/12/14 13:55:42;;;;;;;74.85;39.55;;;;;;;;;;4894198;29;20075;-66
2021/12/14 13:58:17;;;;;;;81.32;41.47;;;;;;;;;;4894601;29;20392;-68
2021/12/14 14:00:43;;;;;;;77.60;39.35;;;;;;;;;;4892990;29;20084;-65
2021/12/14 14:03:11;;;;;;;74.68;38.83;;;;;;;;;;4894436;29;20063;-67
2021/12/14 14:05:37;;;;;;;75.10;39.58;;;;;;;;;;4892372;29;20032;-65
2021/12/14 14:08:07;;;;;;;83.95;42.72;;;;;;;;;;4894143;29;20120;-64
2021/12/14 14:10:34;;;;;;;83.47;44.78;;;;;;;;;;4893797;29;20037;-68
2021/12/14 14:13:05;;;;;;;86.18;46.00;;;;;;;;;;4894247;29;20024;-67
2021/12/14 14:15:33;;;;;;;86.03;45.60;;;;;;;;;;4894073;29;20108;-62
2021/12/14 14:18:02;;;;;;;93.10;48.35;;;;;;;;;;4893936;29;20020;-67
2021/12/14 14:20:30;;;;;;;90.53;46.92;;;;;;;;;;4924619;29;20081;-66
2021/12/14 14:23:06;;;;;;;88.68;43.00;;;;;;;;;;4894504;29;20024;-63
2021/12/14 14:25:32;;;;;;;78.55;40.67;;;;;;;;;;4895320;29;20033;-61
2021/12/14 14:27:59;;;;;;;72.72;37.67;;;;;;;;;;4895137;29;20087;-60
2021/12/14 14:30:35;;;;;;;75.10;37.88;;;;;;;;;;4895009;29;20088;-62
2021/12/14 14:33:38;;;;;;;71.28;37.28;;;;;;;;;;4895369;29;20076;-64
2021/12/14 14:36:15;;;;;;;73.32;37.38;;;;;;;;;;4892972;29;20040;-60
2021/12/14 14:38:41;;;;;;;69.55;37.95;;;;;;;;;;4895783;29;20116;-62
2021/12/14 14:41:11;;;;;;;77.25;39.13;;;;;;;;;;4895475;29;20025;-62
2021/12/14 14:43:55;;;;;;;75.03;38.72;;;;;;;;;;4894691;29;20025;-62
2021/12/14 14:46:40;;;;;;;74.28;38.38;;;;;;;;;;4895643;29;20033;-66
2021/12/14 14:49:08;;;;;;;72.63;37.75;;;;;;;;;;4894975;29;20036;-65
2021/12/14 14:51:52;;;;;;;70.18;37.42;;;;;;;;;;4895011;29;20044;-65
2021/12/14 14:54:44;;;;;;;73.90;38.10;;;;;;;;;;4895294;29;20032;-63
2021/12/14 14:57:10;;;;;;;76.18;38.45;;;;;;;;;;4893952;29;20079;-66
2021/12/14 14:59:38;;;;;;;75.00;37.55;;;;;;;;;;4897173;29;20032;-60
2021/12/14 15:02:04;;;;;;;70.82;37.88;;;;;;;;;;4898688;29;20040;-63
2021/12/14 15:04:30;;;;;;;71.95;37.42;;;;;;;;;;4928071;29;20441;-66
2021/12/14 15:06:56;;;;;;;74.85;37.83;;;;;;;;;;4898421;29;20107;-65
2021/12/14 15:09:30;;;;;;;79.28;40.38;;;;;;;;;;4898197;29;20053;-61
2021/12/14 15:11:58;;;;;;;79.05;39.67;;;;;;;;;;4898452;29;20493;-65
2021/12/14 15:14:35;;;;;;;84.20;42.45;;;;;;;;;;4898705;29;20037;-62
2021/12/14 15:17:03;;;;;;;87.80;43.95;;;;;;;;;;4906904;29;20052;-67
2021/12/14 15:19:38;;;;;;;87.18;42.53;;;;;;;;;;4917609;29;20032;-64
2021/12/14 15:22:04;;;;;;;87.90;44.65;;;;;;;;;;4917523;29;20028;-61
2021/12/14 15:24:42;;;;;;;90.68;44.20;;;;;;;;;;4917401;29;20099;-60
2021/12/14 15:27:08;;;;;;;79.22;42.10;;;;;;;;;;4916823;29;20376;-61
2021/12/14 15:29:37;;;;;;;84.93;43.78;;;;;;;;;;4916989;29;20043;-60
2021/12/14 15:32:16;;;;;;;86.10;43.83;;;;;;;;;;4915118;29;20099;-61
2021/12/14 15:35:03;;;;;;;80.35;41.25;;;;;;;;;;4917067;29;20504;-64
2021/12/14 15:37:39;;;;;;;82.63;43.47;;;;;;;;;;4916957;29;20516;-61
2021/12/14 15:40:20;;;;;;;83.47;42.80;;;;;;;;;;4916610;29;20051;-63
2021/12/14 15:42:46;;;;;;;120.00;58.17;;;;;;;;;;4916979;29;20373;-62
2021/12/14 15:45:13;;;;;;;134.00;64.90;;;;;;;;;;4901274;29;20063;-60
2021/12/14 15:47:58;;;;;;;123.63;62.80;;;;;;;;;;4897710;29;20436;-66
2021/12/14 15:50:24;;;;;;;116.50;58.00;;;;;;;;;;4897908;29;20048;-59
2021/12/14 15:53:19;;;;;;;116.72;57.22;;;;;;;;;;4897642;29;20493;-64
2021/12/14 15:55:46;;;;;;;113.65;56.42;;;;;;;;;;4876885;29;20041;-65
2021/12/14 15:58:13;;;;;;;224.40;110.35;;;;;;;;;;4876753;29;20368;-62
2021/12/14 16:00:39;;;;;;;169.05;82.95;;;;;;;;;;4876514;29;20045;-63
2021/12/14 16:03:06;;;;;;;357.25;135.25;;;;;;;;;;4875964;29;20044;-65
2021/12/14 16:05:33;;;;;;;269.23;108.55;;;;;;;;;;4875882;29;20037;-62
2021/12/14 16:08:02;;;;;;;296.85;119.05;;;;;;;;;;4872330;29;20410;-61
2021/12/14 16:10:32;;;;;;;316.23;140.15;;;;;;;;;;4856781;29;20102;-64
2021/12/14 16:15:46;;;;;;;262.95;119.80;;;;;;;;;;4855555;29;20788;-60
2021/12/14 16:18:15;;;;;;;281.65;134.63;;;;;;;;;;4872964;29;20061;-64
2021/12/14 16:20:46;;;;;;;218.18;108.45;;;;;;;;;;4876374;29;20032;-62
2021/12/14 16:23:15;;;;;;;239.63;116.40;;;;;;;;;;4858755;29;20098;-72
2021/12/14 16:25:52;;;;;;;243.77;116.32;;;;;;;;;;4856506;29;20048;-66
2021/12/14 16:28:38;;;;;;;231.82;113.47;;;;;;;;;;4857352;29;20108;-63
2021/12/14 16:31:16;;;;;;;151.20;77.15;;;;;;;;;;4859997;29;20402;-62
2021/12/14 16:33:44;;;;;;;170.98;84.45;;;;;;;;;;4896950;29;20032;-67
2021/12/14 16:36:14;;;;;;;153.98;77.78;;;;;;;;;;4896102;29;20437;-68
2021/12/14 16:38:40;;;;;;;162.55;80.38;;;;;;;;;;4894105;29;20773;-63
2021/12/14 16:41:09;;;;;;;179.35;87.72;;;;;;;;;;4895719;29;20048;-60
2021/12/14 16:43:38;;;;;;;291.58;137.07;;;;;;;;;;4896551;29;20096;-70
2021/12/14 16:46:05;;;;;;;416.48;209.43;;;;;;;;;;4894423;29;20067;-58
2021/12/14 16:48:33;;;;;;;330.80;160.82;;;;;;;;;;4888344;29;20036;-58
2021/12/14 16:51:00;;;;;;;223.02;108.90;;;;;;;;;;4896831;29;20104;-61
2021/12/14 16:53:27;;;;;;;245.80;121.13;;;;;;;;;;4896571;29;20092;-61
2021/12/14 16:55:53;;;;;;;208.90;105.38;;;;;;;;;;4896468;29;20047;-67
2021/12/14 16:58:21;;;;;;;182.13;93.47;;;;;;;;;;4896455;29;20024;-61
2021/12/14 17:00:50;;;;;;;152.20;80.45;;;;;;;;;;4896605;29;20028;-62
2021/12/14 17:03:17;;;;;;;163.77;85.38;;;;;;;;;;4896514;29;20104;-62
2021/12/14 17:05:45;;;;;;;164.18;83.68;;;;;;;;;;4896881;29;20048;-62
2021/12/14 17:08:13;;;;;;;164.90;81.55;;;;;;;;;;4895908;29;20033;-65
2021/12/14 17:10:39;;;;;;;165.65;85.85;;;;;;;;;;4904820;29;20114;-59
2021/12/14 17:13:13;;;;;;;156.13;79.65;;;;;;;;;;4914655;29;20035;-59
2021/12/14 17:15:42;;;;;;;157.55;78.60;;;;;;;;;;4915228;29;20032;-61
2021/12/14 17:18:12;;;;;;;138.90;75.47;;;;;;;;;;4914697;29;20028;-58
2021/12/14 17:20:39;;;;;;;567.50;326.52;;;;;;;;;;4912242;29;20388;-69
2021/12/14 17:23:06;;;;;;;241.35;121.03;;;;;;;;;;4895386;29;20120;-67
2021/12/14 17:25:32;;;;;;;222.15;110.03;;;;;;;;;;4895954;29;20057;-68
2021/12/14 17:27:58;;;;;;;209.85;103.38;;;;;;;;;;4896414;29;20329;-66
2021/12/14 17:30:27;;;;;;;195.23;99.32;;;;;;;;;;4895943;29;20044;-72
2021/12/14 17:32:54;;;;;;;207.23;105.85;;;;;;;;;;4895991;29;20107;-64
2021/12/14 17:35:23;;;;;;;225.70;107.82;;;;;;;;;;4896362;29;20036;-65
2021/12/14 17:37:50;;;;;;;229.07;113.53;;;;;;;;;;4896041;29;20028;-63
2021/12/14 17:40:18;;;;;;;231.35;117.32;;;;;;;;;;4900833;29;20484;-64
2021/12/14 17:42:45;;;;;;;231.57;116.05;;;;;;;;;;4914834;29;20080;-68
2021/12/14 17:45:17;;;;;;;214.63;109.47;;;;;;;;;;4915183;29;20481;-68
2021/12/14 17:47:44;;;;;;;225.70;111.18;;;;;;;;;;4915119;29;20388;-67
2021/12/14 17:50:31;;;;;;;257.20;121.88;;;;;;;;;;4914357;29;20036;-66
2021/12/14 17:53:05;;;;;;;247.73;120.88;;;;;;;;;;4914912;29;20043;-67
2021/12/14 17:58:25;;;;;;;259.98;125.13;;;;;;;;;;4914776;29;20530;-66
2021/12/14 18:01:02;;;;;;;262.48;127.25;;;;;;;;;;4914347;29;20028;-61
2021/12/14 18:03:29;;;;;;;350.20;186.82;;;;;;;;;;4915639;29;20036;-62
2021/12/14 18:06:02;;;;;;;311.95;164.23;;;;;;;;;;4903282;29;20043;-73
2021/12/14 18:08:47;;;;;;;287.95;145.02;;;;;;;;;;4894547;29;20084;-63
2021/12/14 18:11:34;;;;;;;265.38;131.43;;;;;;;;;;4925181;29;20071;-69
2021/12/14 18:14:42;;;;;;;250.88;120.72;;;;;;;;;;4894574;29;20032;-71
2021/12/14 18:17:22;;;;;;;275.77;135.35;;;;;;;;;;4894750;29;20063;-61
2021/12/14 18:19:48;;;;;;;250.23;121.00;;;;;;;;;;4893012;29;20489;-59
2021/12/14 18:22:15;;;;;;;246.52;121.53;;;;;;;;;;4894288;29;20020;-68
2021/12/14 18:24:49;;;;;;;243.65;120.57;;;;;;;;;;4893900;29;20024;-61
2021/12/14 18:27:36;;;;;;;236.52;118.10;;;;;;;;;;4893961;29;20072;-62
2021/12/14 18:30:08;;;;;;;259.80;127.47;;;;;;;;;;4892221;29;20629;-69
2021/12/14 18:32:34;;;;;;;258.88;128.43;;;;;;;;;;4894341;29;20028;-66
2021/12/14 18:35:12;;;;;;;307.92;150.93;;;;;;;;;;4897021;29;20047;-68
2021/12/14 18:37:40;;;;;;;333.20;158.80;;;;;;;;;;4895870;29;20035;-63
2021/12/14 18:40:23;;;;;;;347.83;161.75;;;;;;;;;;4899236;29;20035;-70
2021/12/14 18:42:49;;;;;;;;;;;;;;;;;;4897814;29;20032;-61
2021/12/14 18:45:16;;;;;;;301.88;143.38;;;;;;;;;;4898115;29;20386;-71
2021/12/14 18:50:18;;;;;;;295.63;143.52;;;;;;;;;;4897688;29;20041;-59
2021/12/14 18:52:48;;;;;;;305.65;145.48;;;;;;;;;;4897449;29;20024;-65
2021/12/14 18:55:20;;;;;;;292.80;143.13;;;;;;;;;;4897375;29;20040;-63
2021/12/14 18:57:47;;;;;;;287.23;141.63;;;;;;;;;;4894882;29;20031;-71
2021/12/14 19:00:16;;;;;;;275.67;138.70;;;;;;;;;;4897081;29;20519;-71
2021/12/14 19:02:42;;;;;;;282.60;138.63;;;;;;;;;;4898720;29;20028;-69
2021/12/14 19:05:08;;;;;;;268.75;136.02;;;;;;;;;;4898567;29;20025;-60
2021/12/14 19:07:39;;;;;;;251.10;129.45;;;;;;;;;;4897295;29;20043;-68
2021/12/14 19:10:08;;;;;;;252.02;127.97;;;;;;;;;;4898638;29;20063;-62
2021/12/14 19:12:35;;;;;;;251.93;129.27;;;;;;;;;;4917219;29;20032;-66
2021/12/14 19:15:18;;;;;;;237.52;124.60;;;;;;;;;;4917146;29;20032;-64
2021/12/14 19:17:45;;;;;;;241.95;124.07;;;;;;;;;;4915376;29;20044;-71
2021/12/14 19:20:14;;;;;;;263.58;129.55;;;;;;;;;;4916335;29;20028;-65
2021/12/14 19:22:48;;;;;;;283.50;140.48;;;;;;;;;;4915791;29;20047;-74
2021/12/14 19:25:17;;;;;;;311.40;155.07;;;;;;;;;;4916538;29;20059;-70
2021/12/14 19:27:43;;;;;;;322.67;154.15;;;;;;;;;;4917098;29;20032;-72
2021/12/14 19:30:14;;;;;;;293.95;142.15;;;;;;;;;;4917003;29;20036;-65
2021/12/14 19:32:40;;;;;;;306.10;143.27;;;;;;;;;;4916873;29;20021;-64
2021/12/14 19:35:11;;;;;;;321.75;151.23;;;;;;;;;;4902949;29;20039;-70
2021/12/14 19:37:45;;;;;;;320.90;153.00;;;;;;;;;;4896419;29;20036;-66
2021/12/14 19:40:17;;;;;;;328.98;159.68;;;;;;;;;;4897374;29;20028;-68
2021/12/14 19:42:44;;;;;;;292.38;142.30;;;;;;;;;;4898112;29;20488;-61
2021/12/14 19:45:12;;;;;;;285.02;138.27;;;;;;;;;;4897300;29;20056;-60
2021/12/14 19:47:39;;;;;;;279.23;136.00;;;;;;;;;;4898003;29;20040;-61
2021/12/14 19:50:13;;;;;;;286.02;136.25;;;;;;;;;;4927365;29;20850;-71
2021/12/14 19:52:40;;;;;;;311.55;147.68;;;;;;;;;;4897804;29;20132;-70
2021/12/14 19:55:08;;;;;;;318.15;153.52;;;;;;;;;;4897724;29;20036;-69
2021/12/14 19:57:36;;;;;;;348.92;177.15;;;;;;;;;;4896563;29;20029;-60
2021/12/14 20:00:11;;;;;;;315.63;155.63;;;;;;;;;;4895079;29;20028;-62
2021/12/14 20:02:37;;;;;;;317.92;156.93;;;;;;;;;;4896536;29;20032;-64
2021/12/14 20:05:09;;;;;;;298.73;149.48;;;;;;;;;;4896449;29;20025;-60
2021/12/14 20:07:36;;;;;;;293.23;144.68;;;;;;;;;;4895973;29;20052;-59
2021/12/14 20:10:05;;;;;;;297.65;147.15;;;;;;;;;;4897435;29;20052;-63
2021/12/14 20:12:33;;;;;;;281.10;140.90;;;;;;;;;;4896473;29;20024;-70
2021/12/14 20:15:06;;;;;;;275.35;137.00;;;;;;;;;;4894384;29;20701;-61
2021/12/14 20:17:44;;;;;;;271.67;134.85;;;;;;;;;;4895650;29;20493;-67
2021/12/14 20:20:32;;;;;;;278.45;140.50;;;;;;;;;;4895775;29;20385;-70
2021/12/14 20:23:00;;;;;;;276.67;133.57;;;;;;;;;;4894456;29;20028;-68
2021/12/14 20:25:29;;;;;;;280.45;137.52;;;;;;;;;;4895540;29;20020;-68
2021/12/14 20:28:10;;;;;;;276.45;130.93;;;;;;;;;;4893274;29;20068;-66
2021/12/14 20:30:41;;;;;;;284.65;136.73;;;;;;;;;;4893855;29;20037;-62
2021/12/14 20:33:07;;;;;;;313.95;149.70;;;;;;;;;;4895411;29;20464;-66
2021/12/14 20:35:33;;;;;;;318.60;152.18;;;;;;;;;;4896194;29;20249;-62
2021/12/14 20:38:07;;;;;;;319.88;155.27;;;;;;;;;;4896021;29;20035;-69
2021/12/14 20:40:36;;;;;;;296.55;144.80;;;;;;;;;;4896454;29;20025;-61
2021/12/14 20:43:21;;;;;;;279.88;136.02;;;;;;;;;;4896060;29;20053;-68
2021/12/14 20:48:18;;;;;;;262.27;127.97;;;;;;;;;;4894925;29;20119;-63
2021/12/14 20:50:44;;;;;;;267.67;128.10;;;;;;;;;;4895231;29;20044;-66
2021/12/14 20:53:13;;;;;;;278.10;134.70;;;;;;;;;;4895646;29;20028;-70
2021/12/14 20:55:49;;;;;;;299.38;146.80;;;;;;;;;;4914660;29;20088;-69
2021/12/14 20:58:27;;;;;;;275.00;137.00;;;;;;;;;;4915048;29;20423;-62